Airport View

Enter AWOS ICAO identifier for current METAR.

ex. KFNL

KCGZ 212356Z AUTO VRB05KT 10SM CLR 33/03 A2983 RMK AO2 SLP088 T03330028 10339 20306 56013

22 Sep 2019 00:16

Frequency: 132.175

Phone: 520-836-3392

Other Area AWOS: KA39 - KCHD - KIWA - KFFZ

TAF KIWA 212320Z 2200/2224 31008KT P6SM SKC FM220600 12007KT P6SM BKN250 FM222100 27010KT P6SM SCT100 SCT250